sensor_id;sensor_type;location;lat;lon;timestamp;P1;durP1;ratioP1;P2;durP2;ratioP2
13741;SDS011;8461;52.356;10.704;2023-02-01T00:01:37;13.87;;;2.43;;
13741;SDS011;8461;52.356;10.704;2023-02-01T00:04:03;10.30;;;2.37;;
13741;SDS011;8461;52.356;10.704;2023-02-01T00:06:29;5.53;;;1.77;;
13741;SDS011;8461;52.356;10.704;2023-02-01T00:08:54;7.37;;;2.20;;
13741;SDS011;8461;52.356;10.704;2023-02-01T00:11:21;14.30;;;2.47;;
13741;SDS011;8461;52.356;10.704;2023-02-01T00:13:48;8.40;;;2.97;;
13741;SDS011;8461;52.356;10.704;2023-02-01T00:18:41;7.43;;;2.70;;
13741;SDS011;8461;52.356;10.704;2023-02-01T00:21:07;14.40;;;2.40;;
13741;SDS011;8461;52.356;10.704;2023-02-01T00:23:35;14.77;;;2.37;;
13741;SDS011;8461;52.356;10.704;2023-02-01T00:26:01;11.63;;;2.37;;
13741;SDS011;8461;52.356;10.704;2023-02-01T00:28:30;8.40;;;1.77;;
13741;SDS011;8461;52.356;10.704;2023-02-01T00:30:59;20.27;;;2.93;;
13741;SDS011;8461;52.356;10.704;2023-02-01T00:33:26;13.60;;;3.10;;
13741;SDS011;8461;52.356;10.704;2023-02-01T00:35:56;8.30;;;2.53;;
13741;SDS011;8461;52.356;10.704;2023-02-01T00:38:23;10.73;;;3.00;;
13741;SDS011;8461;52.356;10.704;2023-02-01T00:40:49;7.97;;;2.33;;
13741;SDS011;8461;52.356;10.704;2023-02-01T00:43:15;9.10;;;1.87;;
13741;SDS011;8461;52.356;10.704;2023-02-01T00:45:40;22.80;;;3.20;;
13741;SDS011;8461;52.356;10.704;2023-02-01T00:48:06;13.20;;;2.43;;
13741;SDS011;8461;52.356;10.704;2023-02-01T00:50:31;10.97;;;2.90;;
13741;SDS011;8461;52.356;10.704;2023-02-01T00:52:57;15.73;;;2.83;;
13741;SDS011;8461;52.356;10.704;2023-02-01T00:55:22;16.33;;;3.07;;
13741;SDS011;8461;52.356;10.704;2023-02-01T00:57:48;10.10;;;2.20;;
13741;SDS011;8461;52.356;10.704;2023-02-01T01:00:14;6.53;;;1.80;;
13741;SDS011;8461;52.356;10.704;2023-02-01T01:02:41;12.93;;;2.57;;
13741;SDS011;8461;52.356;10.704;2023-02-01T01:05:06;9.37;;;3.00;;
13741;SDS011;8461;52.356;10.704;2023-02-01T01:07:32;13.37;;;2.80;;
13741;SDS011;8461;52.356;10.704;2023-02-01T01:09:57;7.50;;;1.70;;
13741;SDS011;8461;52.356;10.704;2023-02-01T01:12:23;19.63;;;3.20;;
13741;SDS011;8461;52.356;10.704;2023-02-01T01:14:49;14.80;;;3.30;;
13741;SDS011;8461;52.356;10.704;2023-02-01T01:17:14;10.40;;;2.67;;
13741;SDS011;8461;52.356;10.704;2023-02-01T01:19:41;11.03;;;3.13;;
13741;SDS011;8461;52.356;10.704;2023-02-01T01:22:06;15.33;;;3.00;;
13741;SDS011;8461;52.356;10.704;2023-02-01T01:24:32;13.23;;;2.70;;
13741;SDS011;8461;52.356;10.704;2023-02-01T01:26:58;17.30;;;2.83;;
13741;SDS011;8461;52.356;10.704;2023-02-01T01:29:23;9.10;;;2.70;;
13741;SDS011;8461;52.356;10.704;2023-02-01T01:31:49;18.20;;;3.33;;
13741;SDS011;8461;52.356;10.704;2023-02-01T01:34:14;13.50;;;2.63;;
13741;SDS011;8461;52.356;10.704;2023-02-01T01:36:40;9.83;;;2.30;;
13741;SDS011;8461;52.356;10.704;2023-02-01T01:39:05;15.83;;;2.90;;
13741;SDS011;8461;52.356;10.704;2023-02-01T01:41:32;8.80;;;2.23;;
13741;SDS011;8461;52.356;10.704;2023-02-01T01:44:02;7.70;;;2.53;;
13741;SDS011;8461;52.356;10.704;2023-02-01T01:46:33;8.13;;;1.93;;
13741;SDS011;8461;52.356;10.704;2023-02-01T01:49:05;7.13;;;2.17;;
13741;SDS011;8461;52.356;10.704;2023-02-01T01:51:32;14.87;;;2.00;;
13741;SDS011;8461;52.356;10.704;2023-02-01T01:54:13;6.20;;;2.20;;
13741;SDS011;8461;52.356;10.704;2023-02-01T01:56:42;14.83;;;2.13;;
13741;SDS011;8461;52.356;10.704;2023-02-01T01:59:11;12.67;;;2.33;;
13741;SDS011;8461;52.356;10.704;2023-02-01T02:01:37;16.83;;;2.90;;
13741;SDS011;8461;52.356;10.704;2023-02-01T02:04:03;10.00;;;1.93;;
13741;SDS011;8461;52.356;10.704;2023-02-01T02:09:24;12.67;;;1.77;;
13741;SDS011;8461;52.356;10.704;2023-02-01T02:11:50;12.17;;;2.80;;
13741;SDS011;8461;52.356;10.704;2023-02-01T02:14:16;15.30;;;2.83;;
13741;SDS011;8461;52.356;10.704;2023-02-01T02:16:52;21.00;;;2.27;;
13741;SDS011;8461;52.356;10.704;2023-02-01T02:25:19;10.93;;;2.53;;
13741;SDS011;8461;52.356;10.704;2023-02-01T02:28:12;11.83;;;2.13;;
13741;SDS011;8461;52.356;10.704;2023-02-01T02:33:52;12.30;;;2.43;;
13741;SDS011;8461;52.356;10.704;2023-02-01T02:39:03;9.03;;;2.33;;
13741;SDS011;8461;52.356;10.704;2023-02-01T02:44:41;12.17;;;3.40;;
13741;SDS011;8461;52.356;10.704;2023-02-01T02:47:36;7.97;;;2.50;;
13741;SDS011;8461;52.356;10.704;2023-02-01T02:50:27;9.50;;;2.23;;
13741;SDS011;8461;52.356;10.704;2023-02-01T02:53:24;11.57;;;3.27;;
13741;SDS011;8461;52.356;10.704;2023-02-01T02:56:31;8.40;;;2.43;;
13741;SDS011;8461;52.356;10.704;2023-02-01T02:59:17;9.63;;;2.17;;
13741;SDS011;8461;52.356;10.704;2023-02-01T03:02:05;12.93;;;2.77;;
13741;SDS011;8461;52.356;10.704;2023-02-01T03:04:54;12.87;;;1.97;;
13741;SDS011;8461;52.356;10.704;2023-02-01T03:10:18;12.97;;;2.53;;
13741;SDS011;8461;52.356;10.704;2023-02-01T03:12:59;14.17;;;2.60;;
13741;SDS011;8461;52.356;10.704;2023-02-01T03:15:36;12.93;;;4.10;;
13741;SDS011;8461;52.356;10.704;2023-02-01T03:18:13;9.00;;;2.97;;
13741;SDS011;8461;52.356;10.704;2023-02-01T03:20:47;15.47;;;2.80;;
13741;SDS011;8461;52.356;10.704;2023-02-01T03:23:15;10.57;;;2.50;;
13741;SDS011;8461;52.356;10.704;2023-02-01T03:25:46;18.93;;;2.73;;
13741;SDS011;8461;52.356;10.704;2023-02-01T03:28:14;11.20;;;3.00;;
13741;SDS011;8461;52.356;10.704;2023-02-01T03:30:45;10.10;;;2.80;;
13741;SDS011;8461;52.356;10.704;2023-02-01T03:33:13;13.93;;;3.20;;
13741;SDS011;8461;52.356;10.704;2023-02-01T03:35:51;10.70;;;2.23;;
13741;SDS011;8461;52.356;10.704;2023-02-01T03:43:43;12.17;;;2.57;;
13741;SDS011;8461;52.356;10.704;2023-02-01T03:46:12;9.40;;;3.20;;
13741;SDS011;8461;52.356;10.704;2023-02-01T03:48:43;16.23;;;3.43;;
13741;SDS011;8461;52.356;10.704;2023-02-01T03:51:09;10.77;;;2.77;;
13741;SDS011;8461;52.356;10.704;2023-02-01T03:53:36;10.37;;;3.30;;
13741;SDS011;8461;52.356;10.704;2023-02-01T03:56:03;17.53;;;3.20;;
13741;SDS011;8461;52.356;10.704;2023-02-01T03:58:31;10.00;;;2.50;;
13741;SDS011;8461;52.356;10.704;2023-02-01T04:00:57;6.00;;;1.80;;
13741;SDS011;8461;52.356;10.704;2023-02-01T04:03:24;8.27;;;2.13;;
13741;SDS011;8461;52.356;10.704;2023-02-01T04:05:51;11.27;;;3.20;;
13741;SDS011;8461;52.356;10.704;2023-02-01T04:08:20;10.40;;;2.80;;
13741;SDS011;8461;52.356;10.704;2023-02-01T04:10:46;8.27;;;2.30;;
13741;SDS011;8461;52.356;10.704;2023-02-01T04:13:12;10.27;;;2.60;;
13741;SDS011;8461;52.356;10.704;2023-02-01T04:15:38;14.30;;;2.43;;
13741;SDS011;8461;52.356;10.704;2023-02-01T04:18:03;8.93;;;2.30;;
13741;SDS011;8461;52.356;10.704;2023-02-01T04:20:29;12.73;;;3.20;;
13741;SDS011;8461;52.356;10.704;2023-02-01T04:22:55;18.37;;;2.77;;
13741;SDS011;8461;52.356;10.704;2023-02-01T04:25:20;13.00;;;2.87;;
13741;SDS011;8461;52.356;10.704;2023-02-01T04:27:46;15.00;;;2.90;;
13741;SDS011;8461;52.356;10.704;2023-02-01T04:30:12;12.73;;;2.20;;
13741;SDS011;8461;52.356;10.704;2023-02-01T04:32:38;10.73;;;2.37;;
13741;SDS011;8461;52.356;10.704;2023-02-01T04:35:04;8.00;;;2.53;;
13741;SDS011;8461;52.356;10.704;2023-02-01T04:37:30;9.83;;;2.50;;
13741;SDS011;8461;52.356;10.704;2023-02-01T04:39:56;8.37;;;2.17;;
13741;SDS011;8461;52.356;10.704;2023-02-01T04:42:21;15.83;;;2.40;;
13741;SDS011;8461;52.356;10.704;2023-02-01T04:44:47;23.73;;;3.20;;
13741;SDS011;8461;52.356;10.704;2023-02-01T04:47:13;7.17;;;2.33;;
13741;SDS011;8461;52.356;10.704;2023-02-01T04:49:40;8.47;;;2.33;;
13741;SDS011;8461;52.356;10.704;2023-02-01T04:52:06;11.37;;;3.50;;
13741;SDS011;8461;52.356;10.704;2023-02-01T04:54:31;7.70;;;2.20;;
13741;SDS011;8461;52.356;10.704;2023-02-01T04:56:57;8.63;;;2.30;;
13741;SDS011;8461;52.356;10.704;2023-02-01T04:59:22;11.90;;;2.53;;
13741;SDS011;8461;52.356;10.704;2023-02-01T05:01:48;11.27;;;3.20;;
13741;SDS011;8461;52.356;10.704;2023-02-01T05:04:13;14.33;;;2.80;;
13741;SDS011;8461;52.356;10.704;2023-02-01T05:06:39;11.17;;;2.83;;
13741;SDS011;8461;52.356;10.704;2023-02-01T05:09:05;14.73;;;3.37;;
13741;SDS011;8461;52.356;10.704;2023-02-01T05:11:30;9.20;;;2.20;;
13741;SDS011;8461;52.356;10.704;2023-02-01T05:14:14;10.07;;;2.20;;
13741;SDS011;8461;52.356;10.704;2023-02-01T05:16:40;14.70;;;3.13;;
13741;SDS011;8461;52.356;10.704;2023-02-01T05:19:06;7.47;;;3.07;;
13741;SDS011;8461;52.356;10.704;2023-02-01T05:21:31;11.77;;;2.37;;
13741;SDS011;8461;52.356;10.704;2023-02-01T05:23:57;14.93;;;2.40;;
13741;SDS011;8461;52.356;10.704;2023-02-01T05:26:34;12.80;;;3.50;;
13741;SDS011;8461;52.356;10.704;2023-02-01T05:29:01;13.20;;;2.60;;
13741;SDS011;8461;52.356;10.704;2023-02-01T05:31:27;9.83;;;2.70;;
13741;SDS011;8461;52.356;10.704;2023-02-01T05:33:52;13.70;;;2.77;;
13741;SDS011;8461;52.356;10.704;2023-02-01T05:36:18;13.77;;;3.40;;
13741;SDS011;8461;52.356;10.704;2023-02-01T05:38:43;10.63;;;2.40;;
13741;SDS011;8461;52.356;10.704;2023-02-01T05:41:09;8.37;;;2.77;;
13741;SDS011;8461;52.356;10.704;2023-02-01T05:43:34;9.20;;;2.50;;
13741;SDS011;8461;52.356;10.704;2023-02-01T05:46:00;13.57;;;3.70;;
13741;SDS011;8461;52.356;10.704;2023-02-01T05:48:26;12.67;;;2.97;;
13741;SDS011;8461;52.356;10.704;2023-02-01T05:50:52;11.57;;;3.30;;
13741;SDS011;8461;52.356;10.704;2023-02-01T05:53:17;9.23;;;2.90;;
13741;SDS011;8461;52.356;10.704;2023-02-01T05:55:43;12.07;;;2.40;;
13741;SDS011;8461;52.356;10.704;2023-02-01T05:58:09;8.30;;;2.70;;
13741;SDS011;8461;52.356;10.704;2023-02-01T06:00:34;10.07;;;2.97;;
13741;SDS011;8461;52.356;10.704;2023-02-01T06:03:00;10.80;;;3.27;;
13741;SDS011;8461;52.356;10.704;2023-02-01T06:05:26;5.87;;;2.80;;
13741;SDS011;8461;52.356;10.704;2023-02-01T06:07:52;11.43;;;3.90;;
13741;SDS011;8461;52.356;10.704;2023-02-01T06:10:17;11.53;;;2.77;;
13741;SDS011;8461;52.356;10.704;2023-02-01T06:12:43;13.97;;;4.00;;
13741;SDS011;8461;52.356;10.704;2023-02-01T06:15:10;8.27;;;2.50;;
13741;SDS011;8461;52.356;10.704;2023-02-01T06:17:37;11.33;;;3.33;;
13741;SDS011;8461;52.356;10.704;2023-02-01T06:20:03;9.47;;;2.70;;
13741;SDS011;8461;52.356;10.704;2023-02-01T06:22:31;6.33;;;2.07;;
13741;SDS011;8461;52.356;10.704;2023-02-01T06:24:57;13.20;;;2.83;;
13741;SDS011;8461;52.356;10.704;2023-02-01T06:27:23;13.30;;;2.47;;
13741;SDS011;8461;52.356;10.704;2023-02-01T06:29:49;6.80;;;3.07;;
13741;SDS011;8461;52.356;10.704;2023-02-01T06:32:15;11.10;;;3.93;;
13741;SDS011;8461;52.356;10.704;2023-02-01T06:34:42;9.13;;;3.03;;
13741;SDS011;8461;52.356;10.704;2023-02-01T06:37:08;12.53;;;4.20;;
13741;SDS011;8461;52.356;10.704;2023-02-01T06:39:33;14.57;;;4.07;;
13741;SDS011;8461;52.356;10.704;2023-02-01T06:41:59;18.27;;;6.20;;
13741;SDS011;8461;52.356;10.704;2023-02-01T06:44:25;14.00;;;3.50;;
13741;SDS011;8461;52.356;10.704;2023-02-01T06:46:50;8.03;;;3.03;;
13741;SDS011;8461;52.356;10.704;2023-02-01T06:49:16;10.17;;;3.17;;
13741;SDS011;8461;52.356;10.704;2023-02-01T06:51:41;15.23;;;3.23;;
13741;SDS011;8461;52.356;10.704;2023-02-01T06:54:07;11.97;;;2.77;;
13741;SDS011;8461;52.356;10.704;2023-02-01T06:56:32;9.67;;;3.07;;
13741;SDS011;8461;52.356;10.704;2023-02-01T06:58:58;8.47;;;3.27;;
13741;SDS011;8461;52.356;10.704;2023-02-01T07:01:23;10.97;;;2.37;;
13741;SDS011;8461;52.356;10.704;2023-02-01T07:03:49;10.60;;;2.60;;
13741;SDS011;8461;52.356;10.704;2023-02-01T07:06:18;7.37;;;2.33;;
13741;SDS011;8461;52.356;10.704;2023-02-01T07:08:44;6.30;;;2.77;;
13741;SDS011;8461;52.356;10.704;2023-02-01T07:11:11;14.67;;;3.23;;
13741;SDS011;8461;52.356;10.704;2023-02-01T07:13:38;9.13;;;2.90;;
13741;SDS011;8461;52.356;10.704;2023-02-01T07:16:05;7.70;;;2.70;;
13741;SDS011;8461;52.356;10.704;2023-02-01T07:18:33;7.87;;;2.93;;
13741;SDS011;8461;52.356;10.704;2023-02-01T07:20:59;10.47;;;2.73;;
13741;SDS011;8461;52.356;10.704;2023-02-01T07:23:25;7.27;;;2.30;;
13741;SDS011;8461;52.356;10.704;2023-02-01T07:25:54;7.80;;;2.53;;
13741;SDS011;8461;52.356;10.704;2023-02-01T07:28:21;11.07;;;2.27;;
13741;SDS011;8461;52.356;10.704;2023-02-01T07:30:47;6.57;;;2.67;;
13741;SDS011;8461;52.356;10.704;2023-02-01T07:33:16;5.10;;;2.60;;
13741;SDS011;8461;52.356;10.704;2023-02-01T07:35:46;9.20;;;3.00;;
13741;SDS011;8461;52.356;10.704;2023-02-01T07:38:12;12.00;;;2.97;;
13741;SDS011;8461;52.356;10.704;2023-02-01T07:40:38;5.23;;;2.50;;
13741;SDS011;8461;52.356;10.704;2023-02-01T07:43:04;7.70;;;3.23;;
13741;SDS011;8461;52.356;10.704;2023-02-01T07:45:31;7.97;;;2.33;;
13741;SDS011;8461;52.356;10.704;2023-02-01T07:47:57;13.37;;;3.37;;
13741;SDS011;8461;52.356;10.704;2023-02-01T07:50:22;8.23;;;2.67;;
13741;SDS011;8461;52.356;10.704;2023-02-01T07:52:48;21.17;;;3.17;;
13741;SDS011;8461;52.356;10.704;2023-02-01T07:55:13;9.97;;;2.07;;
13741;SDS011;8461;52.356;10.704;2023-02-01T07:57:39;10.73;;;2.70;;
13741;SDS011;8461;52.356;10.704;2023-02-01T08:00:04;10.23;;;3.77;;
13741;SDS011;8461;52.356;10.704;2023-02-01T08:02:49;10.07;;;3.43;;
13741;SDS011;8461;52.356;10.704;2023-02-01T08:05:14;7.43;;;2.97;;
13741;SDS011;8461;52.356;10.704;2023-02-01T08:07:40;10.27;;;2.97;;
13741;SDS011;8461;52.356;10.704;2023-02-01T08:10:06;0.00;;;0.00;;
13741;SDS011;8461;52.356;10.704;2023-02-01T08:12:35;2.63;;;2.53;;
13741;SDS011;8461;52.356;10.704;2023-02-01T08:15:02;0.10;;;0.10;;
13741;SDS011;8461;52.356;10.704;2023-02-01T08:17:28;0.10;;;0.10;;
13741;SDS011;8461;52.356;10.704;2023-02-01T08:19:55;0.10;;;0.10;;
13741;SDS011;8461;52.356;10.704;2023-02-01T08:22:21;0.10;;;0.10;;
13741;SDS011;8461;52.356;10.704;2023-02-01T08:24:49;0.00;;;0.00;;
13741;SDS011;8461;52.356;10.704;2023-02-01T08:27:16;0.10;;;0.10;;
13741;SDS011;8461;52.356;10.704;2023-02-01T08:29:42;0.10;;;0.10;;
13741;SDS011;8461;52.356;10.704;2023-02-01T08:32:07;0.10;;;0.10;;
13741;SDS011;8461;52.356;10.704;2023-02-01T08:34:33;0.20;;;0.20;;
13741;SDS011;8461;52.356;10.704;2023-02-01T08:36:59;0.10;;;0.10;;
13741;SDS011;8461;52.356;10.704;2023-02-01T08:39:27;0.17;;;0.17;;
13741;SDS011;8461;52.356;10.704;2023-02-01T08:41:52;0.00;;;0.00;;
13741;SDS011;8461;52.356;10.704;2023-02-01T08:44:37;0.10;;;0.10;;
13741;SDS011;8461;52.356;10.704;2023-02-01T08:47:03;0.10;;;0.10;;
13741;SDS011;8461;52.356;10.704;2023-02-01T08:49:28;0.10;;;0.10;;
13741;SDS011;8461;52.356;10.704;2023-02-01T08:51:54;0.03;;;0.03;;
13741;SDS011;8461;52.356;10.704;2023-02-01T08:54:20;0.10;;;0.10;;
13741;SDS011;8461;52.356;10.704;2023-02-01T08:56:46;0.10;;;0.10;;
13741;SDS011;8461;52.356;10.704;2023-02-01T08:59:12;0.10;;;0.10;;
13741;SDS011;8461;52.356;10.704;2023-02-01T09:01:37;0.10;;;0.10;;
13741;SDS011;8461;52.356;10.704;2023-02-01T09:04:03;0.10;;;0.10;;
13741;SDS011;8461;52.356;10.704;2023-02-01T09:06:28;0.10;;;0.10;;
13741;SDS011;8461;52.356;10.704;2023-02-01T09:08:54;0.03;;;0.03;;
13741;SDS011;8461;52.356;10.704;2023-02-01T09:11:20;0.10;;;0.10;;
13741;SDS011;8461;52.356;10.704;2023-02-01T09:13:46;0.10;;;0.10;;
13741;SDS011;8461;52.356;10.704;2023-02-01T09:16:13;0.10;;;0.10;;
13741;SDS011;8461;52.356;10.704;2023-02-01T09:18:39;0.10;;;0.10;;
13741;SDS011;8461;52.356;10.704;2023-02-01T09:21:05;0.10;;;0.10;;
13741;SDS011;8461;52.356;10.704;2023-02-01T09:23:31;0.10;;;0.10;;
13741;SDS011;8461;52.356;10.704;2023-02-01T09:26:00;0.10;;;0.10;;
13741;SDS011;8461;52.356;10.704;2023-02-01T09:28:28;0.07;;;0.07;;
13741;SDS011;8461;52.356;10.704;2023-02-01T09:31:00;0.10;;;0.10;;
13741;SDS011;8461;52.356;10.704;2023-02-01T09:33:26;0.10;;;0.10;;
13741;SDS011;8461;52.356;10.704;2023-02-01T09:36:02;0.10;;;0.10;;
13741;SDS011;8461;52.356;10.704;2023-02-01T09:38:30;0.07;;;0.07;;
13741;SDS011;8461;52.356;10.704;2023-02-01T09:40:57;0.10;;;0.10;;
13741;SDS011;8461;52.356;10.704;2023-02-01T09:48:54;0.20;;;0.20;;
13741;SDS011;8461;52.356;10.704;2023-02-01T09:51:24;0.10;;;0.10;;
13741;SDS011;8461;52.356;10.704;2023-02-01T09:53:58;0.10;;;0.10;;
13741;SDS011;8461;52.356;10.704;2023-02-01T10:02:08;0.10;;;0.10;;
13741;SDS011;8461;52.356;10.704;2023-02-01T10:04:38;0.10;;;0.10;;
13741;SDS011;8461;52.356;10.704;2023-02-01T10:07:21;0.10;;;0.10;;
13741;SDS011;8461;52.356;10.704;2023-02-01T10:10:11;0.10;;;0.10;;
13741;SDS011;8461;52.356;10.704;2023-02-01T10:15:43;0.10;;;0.10;;
13741;SDS011;8461;52.356;10.704;2023-02-01T10:18:21;0.10;;;0.10;;
13741;SDS011;8461;52.356;10.704;2023-02-01T10:23:50;0.10;;;0.10;;
13741;SDS011;8461;52.356;10.704;2023-02-01T10:26:34;0.10;;;0.10;;
13741;SDS011;8461;52.356;10.704;2023-02-01T10:29:04;0.10;;;0.10;;
13741;SDS011;8461;52.356;10.704;2023-02-01T10:31:35;0.10;;;0.10;;
13741;SDS011;8461;52.356;10.704;2023-02-01T10:36:55;0.00;;;0.00;;
13741;SDS011;8461;52.356;10.704;2023-02-01T10:39:26;0.10;;;0.10;;
13741;SDS011;8461;52.356;10.704;2023-02-01T10:41:52;0.00;;;0.00;;
13741;SDS011;8461;52.356;10.704;2023-02-01T10:44:21;0.10;;;0.10;;
13741;SDS011;8461;52.356;10.704;2023-02-01T10:46:51;0.10;;;0.10;;
13741;SDS011;8461;52.356;10.704;2023-02-01T10:49:17;0.10;;;0.10;;
13741;SDS011;8461;52.356;10.704;2023-02-01T10:54:19;0.10;;;0.10;;
13741;SDS011;8461;52.356;10.704;2023-02-01T10:56:46;0.10;;;0.10;;
13741;SDS011;8461;52.356;10.704;2023-02-01T10:59:17;0.10;;;0.10;;
13741;SDS011;8461;52.356;10.704;2023-02-01T11:01:45;0.10;;;0.10;;
13741;SDS011;8461;52.356;10.704;2023-02-01T11:04:13;0.10;;;0.10;;
13741;SDS011;8461;52.356;10.704;2023-02-01T11:06:45;0.10;;;0.10;;
13741;SDS011;8461;52.356;10.704;2023-02-01T11:09:24;0.00;;;0.00;;
13741;SDS011;8461;52.356;10.704;2023-02-01T11:17:00;0.10;;;0.10;;
13741;SDS011;8461;52.356;10.704;2023-02-01T11:19:35;0.10;;;0.10;;
13741;SDS011;8461;52.356;10.704;2023-02-01T11:22:01;0.10;;;0.10;;
13741;SDS011;8461;52.356;10.704;2023-02-01T11:24:29;0.10;;;0.10;;
13741;SDS011;8461;52.356;10.704;2023-02-01T11:26:59;0.10;;;0.10;;
13741;SDS011;8461;52.356;10.704;2023-02-01T11:29:33;0.10;;;0.10;;
13741;SDS011;8461;52.356;10.704;2023-02-01T11:32:02;0.10;;;0.10;;
13741;SDS011;8461;52.356;10.704;2023-02-01T11:34:38;0.10;;;0.10;;
13741;SDS011;8461;52.356;10.704;2023-02-01T11:37:37;0.20;;;0.20;;
13741;SDS011;8461;52.356;10.704;2023-02-01T11:42:56;0.00;;;0.00;;
13741;SDS011;8461;52.356;10.704;2023-02-01T11:47:53;0.10;;;0.10;;
13741;SDS011;8461;52.356;10.704;2023-02-01T11:53:55;0.10;;;0.10;;
13741;SDS011;8461;52.356;10.704;2023-02-01T11:56:37;0.10;;;0.10;;
13741;SDS011;8461;52.356;10.704;2023-02-01T12:01:46;0.03;;;0.03;;
13741;SDS011;8461;52.356;10.704;2023-02-01T12:07:48;0.10;;;0.10;;
13741;SDS011;8461;52.356;10.704;2023-02-01T12:40:35;0.03;;;0.03;;
13741;SDS011;8461;52.356;10.704;2023-02-01T12:43:20;0.10;;;0.10;;
13741;SDS011;8461;52.356;10.704;2023-02-01T12:45:57;0.10;;;0.10;;
13741;SDS011;8461;52.356;10.704;2023-02-01T12:48:29;0.10;;;0.10;;
13741;SDS011;8461;52.356;10.704;2023-02-01T12:51:08;0.10;;;0.10;;
13741;SDS011;8461;52.356;10.704;2023-02-01T12:56:21;0.00;;;0.00;;
13741;SDS011;8461;52.356;10.704;2023-02-01T12:58:56;0.10;;;0.10;;
13741;SDS011;8461;52.356;10.704;2023-02-01T13:06:47;0.00;;;0.00;;
13741;SDS011;8461;52.356;10.704;2023-02-01T13:11:58;0.07;;;0.07;;
13741;SDS011;8461;52.356;10.704;2023-02-01T13:17:25;0.10;;;0.10;;
13741;SDS011;8461;52.356;10.704;2023-02-01T13:20:03;0.10;;;0.10;;
13741;SDS011;8461;52.356;10.704;2023-02-01T13:23:03;0.10;;;0.10;;
13741;SDS011;8461;52.356;10.704;2023-02-01T13:25:38;0.00;;;0.00;;
13741;SDS011;8461;52.356;10.704;2023-02-01T13:28:14;0.10;;;0.10;;
13741;SDS011;8461;52.356;10.704;2023-02-01T13:30:54;0.10;;;0.10;;
13741;SDS011;8461;52.356;10.704;2023-02-01T13:33:39;0.00;;;0.00;;
13741;SDS011;8461;52.356;10.704;2023-02-01T13:44:25;0.10;;;0.10;;
13741;SDS011;8461;52.356;10.704;2023-02-01T13:47:09;0.10;;;0.10;;
13741;SDS011;8461;52.356;10.704;2023-02-01T13:49:54;0.10;;;0.10;;
13741;SDS011;8461;52.356;10.704;2023-02-01T13:52:27;0.00;;;0.00;;
13741;SDS011;8461;52.356;10.704;2023-02-01T13:55:15;0.10;;;0.10;;
13741;SDS011;8461;52.356;10.704;2023-02-01T13:57:50;0.10;;;0.10;;
13741;SDS011;8461;52.356;10.704;2023-02-01T14:10:47;0.10;;;0.10;;
13741;SDS011;8461;52.356;10.704;2023-02-01T14:13:33;0.10;;;0.10;;
13741;SDS011;8461;52.356;10.704;2023-02-01T14:23:47;0.10;;;0.10;;
13741;SDS011;8461;52.356;10.704;2023-02-01T14:29:18;0.10;;;0.10;;
13741;SDS011;8461;52.356;10.704;2023-02-01T14:31:52;0.10;;;0.10;;
13741;SDS011;8461;52.356;10.704;2023-02-01T14:34:20;0.20;;;0.20;;
13741;SDS011;8461;52.356;10.704;2023-02-01T14:37:01;0.10;;;0.10;;
13741;SDS011;8461;52.356;10.704;2023-02-01T14:39:36;0.07;;;0.07;;
13741;SDS011;8461;52.356;10.704;2023-02-01T14:42:22;0.10;;;0.10;;
13741;SDS011;8461;52.356;10.704;2023-02-01T14:47:44;0.10;;;0.10;;
13741;SDS011;8461;52.356;10.704;2023-02-01T15:01:13;0.10;;;0.10;;
13741;SDS011;8461;52.356;10.704;2023-02-01T15:04:00;0.10;;;0.10;;
13741;SDS011;8461;52.356;10.704;2023-02-01T15:06:38;0.10;;;0.10;;
13741;SDS011;8461;52.356;10.704;2023-02-01T15:09:31;0.10;;;0.10;;
13741;SDS011;8461;52.356;10.704;2023-02-01T15:12:25;0.10;;;0.10;;
13741;SDS011;8461;52.356;10.704;2023-02-01T15:15:15;0.10;;;0.10;;
13741;SDS011;8461;52.356;10.704;2023-02-01T15:17:52;0.13;;;0.13;;
13741;SDS011;8461;52.356;10.704;2023-02-01T15:20:30;0.10;;;0.10;;
13741;SDS011;8461;52.356;10.704;2023-02-01T15:23:03;0.10;;;0.10;;
13741;SDS011;8461;52.356;10.704;2023-02-01T15:25:34;0.10;;;0.10;;
13741;SDS011;8461;52.356;10.704;2023-02-01T15:28:03;0.10;;;0.10;;
13741;SDS011;8461;52.356;10.704;2023-02-01T15:30:31;0.10;;;0.10;;
13741;SDS011;8461;52.356;10.704;2023-02-01T15:33:07;0.00;;;0.00;;
13741;SDS011;8461;52.356;10.704;2023-02-01T15:35:38;0.00;;;0.00;;
13741;SDS011;8461;52.356;10.704;2023-02-01T15:38:20;0.10;;;0.10;;
13741;SDS011;8461;52.356;10.704;2023-02-01T15:40:55;0.10;;;0.10;;
13741;SDS011;8461;52.356;10.704;2023-02-01T15:43:28;0.30;;;0.30;;
13741;SDS011;8461;52.356;10.704;2023-02-01T15:46:00;0.10;;;0.10;;
13741;SDS011;8461;52.356;10.704;2023-02-01T15:48:28;0.10;;;0.10;;
13741;SDS011;8461;52.356;10.704;2023-02-01T15:50:59;0.10;;;0.10;;
13741;SDS011;8461;52.356;10.704;2023-02-01T15:53:25;0.10;;;0.10;;
13741;SDS011;8461;52.356;10.704;2023-02-01T15:55:56;0.10;;;0.10;;
13741;SDS011;8461;52.356;10.704;2023-02-01T15:58:24;0.00;;;0.00;;
13741;SDS011;8461;52.356;10.704;2023-02-01T16:00:51;0.10;;;0.10;;
13741;SDS011;8461;52.356;10.704;2023-02-01T16:03:25;0.10;;;0.10;;
13741;SDS011;8461;52.356;10.704;2023-02-01T16:06:00;0.10;;;0.10;;
13741;SDS011;8461;52.356;10.704;2023-02-01T16:08:28;0.10;;;0.10;;
13741;SDS011;8461;52.356;10.704;2023-02-01T16:11:13;0.10;;;0.10;;
13741;SDS011;8461;52.356;10.704;2023-02-01T16:14:05;0.10;;;0.10;;
13741;SDS011;8461;52.356;10.704;2023-02-01T16:16:31;0.10;;;0.10;;
13741;SDS011;8461;52.356;10.704;2023-02-01T16:18:57;0.10;;;0.10;;
13741;SDS011;8461;52.356;10.704;2023-02-01T16:21:22;0.20;;;0.20;;
13741;SDS011;8461;52.356;10.704;2023-02-01T16:23:51;0.10;;;0.10;;
13741;SDS011;8461;52.356;10.704;2023-02-01T16:26:17;0.10;;;0.10;;
13741;SDS011;8461;52.356;10.704;2023-02-01T16:28:43;0.10;;;0.10;;
13741;SDS011;8461;52.356;10.704;2023-02-01T16:31:11;0.10;;;0.10;;
13741;SDS011;8461;52.356;10.704;2023-02-01T16:33:44;0.10;;;0.10;;
13741;SDS011;8461;52.356;10.704;2023-02-01T16:36:18;0.00;;;0.00;;
13741;SDS011;8461;52.356;10.704;2023-02-01T16:38:44;0.10;;;0.10;;
13741;SDS011;8461;52.356;10.704;2023-02-01T16:41:13;0.10;;;0.10;;
13741;SDS011;8461;52.356;10.704;2023-02-01T16:43:39;0.10;;;0.10;;
13741;SDS011;8461;52.356;10.704;2023-02-01T16:46:05;0.10;;;0.10;;
13741;SDS011;8461;52.356;10.704;2023-02-01T16:48:40;0.10;;;0.10;;
13741;SDS011;8461;52.356;10.704;2023-02-01T16:51:08;0.10;;;0.10;;
13741;SDS011;8461;52.356;10.704;2023-02-01T16:53:36;0.00;;;0.00;;
13741;SDS011;8461;52.356;10.704;2023-02-01T16:56:07;0.10;;;0.10;;
13741;SDS011;8461;52.356;10.704;2023-02-01T16:58:38;0.10;;;0.10;;
13741;SDS011;8461;52.356;10.704;2023-02-01T17:01:06;0.10;;;0.10;;
13741;SDS011;8461;52.356;10.704;2023-02-01T17:03:31;0.10;;;0.10;;
13741;SDS011;8461;52.356;10.704;2023-02-01T17:05:57;0.00;;;0.00;;
13741;SDS011;8461;52.356;10.704;2023-02-01T17:08:36;0.10;;;0.10;;
13741;SDS011;8461;52.356;10.704;2023-02-01T17:11:04;0.10;;;0.10;;
13741;SDS011;8461;52.356;10.704;2023-02-01T17:13:31;0.10;;;0.10;;
13741;SDS011;8461;52.356;10.704;2023-02-01T17:18:24;0.10;;;0.10;;
13741;SDS011;8461;52.356;10.704;2023-02-01T17:20:55;0.10;;;0.10;;
13741;SDS011;8461;52.356;10.704;2023-02-01T17:23:22;0.10;;;0.10;;
13741;SDS011;8461;52.356;10.704;2023-02-01T17:25:47;0.10;;;0.10;;
13741;SDS011;8461;52.356;10.704;2023-02-01T17:28:13;0.10;;;0.10;;
13741;SDS011;8461;52.356;10.704;2023-02-01T17:30:39;0.10;;;0.10;;
13741;SDS011;8461;52.356;10.704;2023-02-01T17:33:08;0.10;;;0.10;;
13741;SDS011;8461;52.356;10.704;2023-02-01T17:35:43;0.30;;;0.30;;
13741;SDS011;8461;52.356;10.704;2023-02-01T17:38:12;0.10;;;0.10;;
13741;SDS011;8461;52.356;10.704;2023-02-01T17:40:37;0.07;;;0.07;;